Time;durP1;ratioP1;P1;durP2;ratioP2;P2;SDS_P1;SDS_P2;PMS_P1;PMS_P2;Temp;Humidity;BMP_temperature;BMP_pressure;BME280_temperature;BME280_humidity;BME280_pressure;Samples;Min_cycle;Max_cycle;Signal;HPM_P1;HPM_P2
2021/05/30 00:01:23;;;;;;;;;;;7.50;93.30;;;;;;5065169;28;19913;-70
2021/05/30 00:03:48;;;;;;;;;;;7.50;93.30;;;;;;5073689;28;19999;-70
2021/05/30 00:06:14;;;;;;;;;;;7.40;93.40;;;;;;5057151;28;20019;-70
2021/05/30 00:08:39;;;;;;;;;;;7.40;93.60;;;;;;5072926;28;19919;-70
2021/05/30 00:11:05;;;;;;;;;;;7.40;93.70;;;;;;5063878;28;20006;-69
2021/05/30 00:13:30;;;;;;;;;;;7.40;93.80;;;;;;5065827;28;20004;-68
2021/05/30 00:15:56;;;;;;;;;;;7.30;93.80;;;;;;5068636;28;19966;-70
2021/05/30 00:18:22;;;;;;;;;;;7.30;93.90;;;;;;5066718;28;19968;-70
2021/05/30 00:20:47;;;;;;;;;;;7.30;94.00;;;;;;5057344;28;19916;-70
2021/05/30 00:23:13;;;;;;;;;;;7.30;93.90;;;;;;5062994;28;19983;-70
2021/05/30 00:25:38;;;;;;;;;;;7.30;94.00;;;;;;5071691;28;19920;-71
2021/05/30 00:28:04;;;;;;;;;;;7.20;94.10;;;;;;5066717;28;20378;-71
2021/05/30 00:30:29;;;;;;;;;;;7.10;94.20;;;;;;5064109;28;19987;-70
2021/05/30 00:32:55;;;;;;;;;;;7.10;94.50;;;;;;5072330;28;20326;-69
2021/05/30 00:35:20;;;;;;;;;;;7.10;94.60;;;;;;5060481;28;19912;-70
2021/05/30 00:37:46;;;;;;;;;;;7.10;94.50;;;;;;5070405;28;19913;-70
2021/05/30 00:40:12;;;;;;;;;;;7.00;94.50;;;;;;5071802;28;19916;-70
2021/05/30 00:42:37;;;;;;;;;;;7.00;94.50;;;;;;5065631;28;19973;-71
2021/05/30 00:45:06;;;;;;;;;;;7.00;94.60;;;;;;5065792;28;20289;-71
2021/05/30 00:47:32;;;;;;;;;;;7.00;94.60;;;;;;5066468;28;19912;-71
2021/05/30 00:49:57;;;;;;;;;;;7.00;94.60;;;;;;5060789;28;20007;-71
2021/05/30 00:52:23;;;;;;;;;;;6.90;94.60;;;;;;5056922;28;19926;-71
2021/05/30 00:54:49;;;;;;;;;;;6.90;94.60;;;;;;5059259;28;19917;-71
2021/05/30 00:57:14;;;;;;;;;;;6.90;94.70;;;;;;5057212;28;19956;-72
2021/05/30 00:59:40;;;;;;;;;;;6.90;94.70;;;;;;5059728;28;19920;-70
2021/05/30 01:02:06;;;;;;;;;;;6.80;94.80;;;;;;5058401;28;20281;-70
2021/05/30 01:04:32;;;;;;;;;;;6.70;95.00;;;;;;5063913;28;19951;-71
2021/05/30 01:06:58;;;;;;;;;;;6.60;95.00;;;;;;5064538;28;19916;-71
2021/05/30 01:09:26;;;;;;;;;;;6.60;95.00;;;;;;5061084;28;20536;-71
2021/05/30 01:11:54;;;;;;;;;;;6.50;95.10;;;;;;5066729;28;19924;-71
2021/05/30 01:14:20;;;;;;;;;;;6.50;95.10;;;;;;5073433;28;19913;-71
2021/05/30 01:16:46;;;;;;;;;;;6.40;95.20;;;;;;5064019;28;20071;-70
2021/05/30 01:19:13;;;;;;;;;;;6.40;95.30;;;;;;5056960;28;19909;-71
2021/05/30 01:21:39;;;;;;;;;;;6.30;95.40;;;;;;5069378;28;19917;-71
2021/05/30 01:24:04;;;;;;;;;;;6.20;95.50;;;;;;5065725;28;19920;-71
2021/05/30 01:26:30;;;;;;;;;;;6.20;95.60;;;;;;5068724;28;19935;-70
2021/05/30 01:28:55;;;;;;;;;;;6.10;95.40;;;;;;5061674;28;19913;-71
2021/05/30 01:31:22;;;;;;;;;;;6.00;95.50;;;;;;5066372;28;19999;-70
2021/05/30 01:33:48;;;;;;;;;;;5.90;95.50;;;;;;5070390;28;20374;-71
2021/05/30 01:36:14;;;;;;;;;;;5.90;95.70;;;;;;5087380;28;19963;-71
2021/05/30 01:38:39;;;;;;;;;;;5.70;95.70;;;;;;5079073;28;20399;-71
2021/05/30 01:41:05;;;;;;;;;;;5.60;95.60;;;;;;5083015;28;19920;-69
2021/05/30 01:43:33;;;;;;;;;;;5.50;95.70;;;;;;5093127;28;19916;-70
2021/05/30 01:45:59;;;;;;;;;;;5.50;95.80;;;;;;5093884;28;19916;-70
2021/05/30 01:48:26;;;;;;;;;;;5.50;95.80;;;;;;5068302;28;20277;-70
2021/05/30 01:50:51;;;;;;;;;;;5.50;95.80;;;;;;5084752;28;19994;-70
2021/05/30 01:53:17;;;;;;;;;;;5.50;95.90;;;;;;5088644;28;20002;-71
2021/05/30 01:58:13;;;;;;;;;;;5.40;95.90;;;;;;5090839;28;20432;-70
2021/05/30 02:00:38;;;;;;;;;;;5.40;95.90;;;;;;5086237;28;19912;-70
2021/05/30 02:03:04;;;;;;;;;;;5.40;95.90;;;;;;5091680;28;20011;-70
2021/05/30 02:05:29;;;;;;;;;;;5.40;95.90;;;;;;5085829;28;19920;-71
2021/05/30 02:07:55;;;;;;;;;;;5.40;95.80;;;;;;5092314;28;19931;-70
2021/05/30 02:10:22;;;;;;;;;;;5.30;95.90;;;;;;5091861;28;19909;-71
2021/05/30 02:12:49;;;;;;;;;;;5.30;95.90;;;;;;5070983;28;20190;-70
2021/05/30 02:15:15;;;;;;;;;;;5.40;96.00;;;;;;5091413;28;19920;-70
2021/05/30 02:17:41;;;;;;;;;;;5.50;96.20;;;;;;5091574;28;19916;-70
2021/05/30 02:20:07;;;;;;;;;;;5.50;96.10;;;;;;5087949;28;19951;-70
2021/05/30 02:22:33;;;;;;;;;;;5.90;96.30;;;;;;5094985;28;19973;-70
2021/05/30 02:24:58;;;;;;;;;;;6.20;96.00;;;;;;5093830;28;19920;-71
2021/05/30 02:27:25;;;;;;;;;;;6.40;95.40;;;;;;5077241;28;19956;-70
2021/05/30 02:29:50;;;;;;;;;;;6.30;95.50;;;;;;5095790;28;19920;-70
2021/05/30 02:32:16;;;;;;;;;;;6.20;95.50;;;;;;5098194;28;19916;-71
2021/05/30 02:34:43;;;;;;;;;;;6.20;95.50;;;;;;5095381;28;19964;-71
2021/05/30 02:37:13;;;;;;;;;;;6.00;95.50;;;;;;5095619;28;19919;-71
2021/05/30 02:39:39;;;;;;;;;;;5.80;95.40;;;;;;5097963;28;19912;-70
2021/05/30 02:42:05;;;;;;;;;;;5.70;95.70;;;;;;5095987;28;19912;-69
2021/05/30 02:44:30;;;;;;;;;;;5.60;95.80;;;;;;5069802;28;19992;-70
2021/05/30 02:46:56;;;;;;;;;;;5.50;95.80;;;;;;5096433;28;20335;-71
2021/05/30 02:49:22;;;;;;;;;;;5.40;95.70;;;;;;5075868;28;20224;-70
2021/05/30 02:51:47;;;;;;;;;;;5.30;95.90;;;;;;5086202;28;20344;-71
2021/05/30 02:54:13;;;;;;;;;;;5.30;95.90;;;;;;5073598;28;20206;-70
2021/05/30 02:56:38;;;;;;;;;;;5.30;95.90;;;;;;5091970;28;19913;-70
2021/05/30 02:59:04;;;;;;;;;;;5.30;96.00;;;;;;5095215;28;19912;-70
2021/05/30 03:01:29;;;;;;;;;;;5.50;96.00;;;;;;5097028;28;19916;-70
2021/05/30 03:03:55;;;;;;;;;;;5.50;96.10;;;;;;5079410;28;19955;-71
2021/05/30 03:06:24;;;;;;;;;;;5.40;95.90;;;;;;5093919;28;19916;-71
2021/05/30 03:08:50;;;;;;;;;;;5.40;95.90;;;;;;5096696;28;19923;-71
2021/05/30 03:11:15;;;;;;;;;;;5.40;95.80;;;;;;5079377;28;20216;-71
2021/05/30 03:13:41;;;;;;;;;;;5.40;95.90;;;;;;5086092;28;20012;-70
2021/05/30 03:16:06;;;;;;;;;;;5.40;96.20;;;;;;5097848;28;19947;-71
2021/05/30 03:18:32;;;;;;;;;;;5.40;96.00;;;;;;5087121;28;19942;-71
2021/05/30 03:20:57;;;;;;;;;;;5.50;96.10;;;;;;5091969;28;20006;-70
2021/05/30 03:23:23;;;;;;;;;;;5.50;96.00;;;;;;5087684;28;19912;-72
2021/05/30 03:25:49;;;;;;;;;;;5.50;96.10;;;;;;5089931;28;19924;-70
2021/05/30 03:28:14;;;;;;;;;;;5.60;96.20;;;;;;5090795;28;20266;-70
2021/05/30 03:30:40;;;;;;;;;;;5.60;96.10;;;;;;5095366;28;20319;-70
2021/05/30 03:33:05;;;;;;;;;;;5.50;95.90;;;;;;5089938;28;19923;-69
2021/05/30 03:35:31;;;;;;;;;;;5.40;96.00;;;;;;5094902;28;19919;-70
2021/05/30 03:37:58;;;;;;;;;;;5.40;96.20;;;;;;5093480;28;19916;-71
2021/05/30 03:40:30;;;;;;;;;;;5.30;96.00;;;;;;5097557;28;19912;-72
2021/05/30 03:42:56;;;;;;;;;;;5.30;96.20;;;;;;5096644;28;20193;-70
2021/05/30 03:45:22;;;;;;;;;;;5.40;96.30;;;;;;5091676;28;19916;-71
2021/05/30 03:47:48;;;;;;;;;;;5.50;96.30;;;;;;5096162;28;19935;-71
2021/05/30 03:50:14;;;;;;;;;;;5.50;96.20;;;;;;5091729;28;20244;-70
2021/05/30 03:52:39;;;;;;;;;;;5.70;96.30;;;;;;5058832;28;19912;-71
2021/05/30 03:55:05;;;;;;;;;;;6.10;96.30;;;;;;5071119;28;19919;-71
2021/05/30 03:57:32;;;;;;;;;;;6.50;96.30;;;;;;5071216;28;19919;-71
2021/05/30 03:59:59;;;;;;;;;;;6.90;95.60;;;;;;5083200;28;19968;-71
2021/05/30 04:02:25;;;;;;;;;;;7.40;94.60;;;;;;5092701;28;19912;-71
2021/05/30 04:04:50;;;;;;;;;;;7.70;93.60;;;;;;5090026;28;19938;-70
2021/05/30 04:07:16;;;;;;;;;;;7.90;92.90;;;;;;5086581;28;19912;-71
2021/05/30 04:09:41;;;;;;;;;;;8.10;92.40;;;;;;5089083;28;19912;-71
2021/05/30 04:12:07;;;;;;;;;;;8.30;91.70;;;;;;5070373;28;19916;-71
2021/05/30 04:14:32;;;;;;;;;;;8.50;91.00;;;;;;5083644;28;20015;-71
2021/05/30 04:16:58;;;;;;;;;;;8.60;90.50;;;;;;5092782;28;20354;-71
2021/05/30 04:19:23;;;;;;;;;;;8.60;90.20;;;;;;5095992;28;20285;-70
2021/05/30 04:21:49;;;;;;;;;;;8.70;90.00;;;;;;5088486;28;20317;-69
2021/05/30 04:24:15;;;;;;;;;;;8.70;89.90;;;;;;5088379;28;19973;-71
2021/05/30 04:26:41;;;;;;;;;;;8.70;90.20;;;;;;5092555;28;19916;-70
2021/05/30 04:29:07;;;;;;;;;;;8.70;90.10;;;;;;5094537;28;19912;-71
2021/05/30 04:31:32;;;;;;;;;;;8.70;89.60;;;;;;5073284;28;19916;-71
2021/05/30 04:33:58;;;;;;;;;;;8.80;89.60;;;;;;5095142;28;19914;-71
2021/05/30 04:36:23;;;;;;;;;;;8.80;89.50;;;;;;5087153;28;19912;-71
2021/05/30 04:38:49;;;;;;;;;;;8.80;89.60;;;;;;5092662;28;19920;-70
2021/05/30 04:41:14;;;;;;;;;;;8.80;89.10;;;;;;5093594;28;19912;-71
2021/05/30 04:43:40;;;;;;;;;;;8.80;89.10;;;;;;5094023;28;20198;-71
2021/05/30 04:46:05;;;;;;;;;;;8.90;89.00;;;;;;5091783;28;19920;-71
2021/05/30 04:48:31;;;;;;;;;;;9.00;88.70;;;;;;5094328;28;19919;-70
2021/05/30 04:51:06;;;;;;;;;;;9.00;89.00;;;;;;5094291;28;20201;-71
2021/05/30 04:53:34;;;;;;;;;;;8.90;88.90;;;;;;5087064;28;19912;-70
2021/05/30 04:56:00;;;;;;;;;;;9.00;89.00;;;;;;5081330;28;19916;-70
2021/05/30 04:58:26;;;;;;;;;;;9.00;89.00;;;;;;5090066;28;19913;-71
2021/05/30 05:00:52;;;;;;;;;;;9.00;89.30;;;;;;5088165;28;19912;-71
2021/05/30 05:03:18;;;;;;;;;;;9.00;89.30;;;;;;5093808;28;19919;-71
2021/05/30 05:05:43;;;;;;;;;;;9.10;89.10;;;;;;5084153;28;20329;-71
2021/05/30 05:08:09;;;;;;;;;;;9.20;89.00;;;;;;5091423;28;19923;-71
2021/05/30 05:10:34;;;;;;;;;;;9.20;89.00;;;;;;5091661;28;19919;-71
2021/05/30 05:13:00;;;;;;;;;;;9.30;88.90;;;;;;5085760;28;20008;-72
2021/05/30 05:15:25;;;;;;;;;;;9.40;88.70;;;;;;5091239;28;20348;-71
2021/05/30 05:17:51;;;;;;;;;;;9.50;88.40;;;;;;5093780;28;19944;-71
2021/05/30 05:20:16;;;;;;;;;;;9.60;88.30;;;;;;5074765;28;19916;-71
2021/05/30 05:22:42;;;;;;;;;;;9.70;88.40;;;;;;5089060;28;20502;-71
2021/05/30 05:25:08;;;;;;;;;;;9.80;87.80;;;;;;5077326;28;19963;-71
2021/05/30 05:27:33;;;;;;;;;;;9.80;88.10;;;;;;5090233;28;19916;-71
2021/05/30 05:29:59;;;;;;;;;;;9.90;88.20;;;;;;5091117;28;19920;-71
2021/05/30 05:32:24;;;;;;;;;;;10.00;87.60;;;;;;5095278;28;19974;-71
2021/05/30 05:34:50;;;;;;;;;;;10.10;87.90;;;;;;5080485;28;19962;-71
2021/05/30 05:37:15;;;;;;;;;;;10.20;87.60;;;;;;5092852;28;19965;-71
2021/05/30 05:39:41;;;;;;;;;;;10.30;87.10;;;;;;5076274;28;19916;-71
2021/05/30 05:42:07;;;;;;;;;;;10.40;86.90;;;;;;5087884;28;19970;-71
2021/05/30 05:44:32;;;;;;;;;;;10.50;87.00;;;;;;5086587;28;21490;-71
2021/05/30 05:46:58;;;;;;;;;;;10.60;86.40;;;;;;5089007;28;20015;-71
2021/05/30 05:49:23;;;;;;;;;;;10.70;86.80;;;;;;5090232;28;19912;-71
2021/05/30 05:52:00;;;;;;;;;;;10.80;86.70;;;;;;5089046;28;19977;-70
2021/05/30 05:54:30;;;;;;;;;;;10.90;86.20;;;;;;5066644;28;19990;-71
2021/05/30 05:56:55;;;;;;;;;;;11.10;85.80;;;;;;5091484;28;20289;-71
2021/05/30 05:59:21;;;;;;;;;;;11.20;85.60;;;;;;5089507;28;19918;-71
2021/05/30 06:01:46;;;;;;;;;;;11.30;85.20;;;;;;5090424;28;19999;-71
2021/05/30 06:04:12;;;;;;;;;;;11.40;84.70;;;;;;5071605;28;20033;-71
2021/05/30 06:06:37;;;;;;;;;;;11.50;84.40;;;;;;5088532;28;20043;-71
2021/05/30 06:09:03;;;;;;;;;;;11.60;83.40;;;;;;5087099;28;19958;-71
2021/05/30 06:11:29;;;;;;;;;;;11.70;81.70;;;;;;5088793;28;19919;-71
2021/05/30 06:13:54;;;;;;;;;;;11.80;81.30;;;;;;5091010;28;19965;-70
2021/05/30 06:16:20;;;;;;;;;;;11.90;80.60;;;;;;5089393;28;20233;-71
2021/05/30 06:18:46;;;;;;;;;;;12.00;80.30;;;;;;5092591;28;19912;-71
2021/05/30 06:21:11;;;;;;;;;;;12.00;80.00;;;;;;5076524;28;19934;-70
2021/05/30 06:23:37;;;;;;;;;;;12.10;80.00;;;;;;5097760;28;19965;-70
2021/05/30 06:26:08;;;;;;;;;;;12.20;79.20;;;;;;5097610;28;19966;-69
2021/05/30 06:28:34;;;;;;;;;;;12.30;79.00;;;;;;5095059;28;19919;-70
2021/05/30 06:30:59;;;;;;;;;;;12.30;78.40;;;;;;5096362;28;19912;-70
2021/05/30 06:33:25;;;;;;;;;;;12.40;77.40;;;;;;5094709;28;19916;-71
2021/05/30 06:35:50;;;;;;;;;;;12.50;77.80;;;;;;5096143;28;19912;-71
2021/05/30 06:38:16;;;;;;;;;;;12.50;76.30;;;;;;5097436;28;20297;-72
2021/05/30 06:40:41;;;;;;;;;;;12.60;75.60;;;;;;5095196;28;19948;-71
2021/05/30 06:43:09;;;;;;;;;;;12.70;74.80;;;;;;5094919;28;19912;-72
2021/05/30 06:45:35;;;;;;;;;;;12.80;74.30;;;;;;5095549;28;19916;-71
2021/05/30 06:48:00;;;;;;;;;;;12.80;74.80;;;;;;5072944;28;19920;-72
2021/05/30 06:50:26;;;;;;;;;;;12.80;72.30;;;;;;5090709;28;19912;-71
2021/05/30 06:52:53;;;;;;;;;;;13.00;72.00;;;;;;5096167;28;19919;-71
2021/05/30 06:55:22;;;;;;;;;;;13.10;71.90;;;;;;5096543;28;19916;-71
2021/05/30 06:57:48;;;;;;;;;;;13.20;72.20;;;;;;5096829;28;19912;-71
2021/05/30 07:00:14;;;;;;;;;;;13.20;71.20;;;;;;5093484;28;20310;-71
2021/05/30 07:02:42;;;;;;;;;;;13.30;70.00;;;;;;5095323;28;19955;-71
2021/05/30 07:05:08;;;;;;;;;;;13.30;71.40;;;;;;5093160;28;19912;-71
2021/05/30 07:07:34;;;;;;;;;;;13.40;70.30;;;;;;5096993;28;19912;-71
2021/05/30 07:10:00;;;;;;;;;;;13.60;69.60;;;;;;5095172;28;19919;-70
2021/05/30 07:12:25;;;;;;;;;;;13.70;68.90;;;;;;5091813;28;19912;-69
2021/05/30 07:14:51;;;;;;;;;;;13.80;68.40;;;;;;5072045;28;19920;-70
2021/05/30 07:17:16;;;;;;;;;;;13.80;67.70;;;;;;5078134;28;19916;-71
2021/05/30 07:19:46;;;;;;;;;;;13.90;68.00;;;;;;5096622;28;19960;-69
2021/05/30 07:22:12;;;;;;;;;;;14.10;68.80;;;;;;5097941;28;19920;-68
2021/05/30 07:24:38;;;;;;;;;;;14.40;68.30;;;;;;5085822;28;19913;-70
2021/05/30 07:27:03;;;;;;;;;;;15.30;65.50;;;;;;5076427;28;20369;-70
2021/05/30 07:29:29;;;;;;;;;;;16.10;62.70;;;;;;5093256;28;19916;-70
2021/05/30 07:31:54;;;;;;;;;;;17.00;59.60;;;;;;5096567;28;20328;-71
2021/05/30 07:34:20;;;;;;;;;;;17.60;58.80;;;;;;5088551;28;19912;-71
2021/05/30 07:36:45;;;;;;;;;;;18.40;57.30;;;;;;5093268;28;19912;-71
2021/05/30 07:39:11;;;;;;;;;;;19.00;55.90;;;;;;5096901;28;20328;-70
2021/05/30 07:41:36;;;;;;;;;;;19.40;53.10;;;;;;5095095;28;20309;-70
2021/05/30 07:44:02;;;;;;;;;;;19.30;53.40;;;;;;5091984;28;20236;-71
2021/05/30 07:46:28;;;;;;;;;;;19.30;54.40;;;;;;5087638;28;20309;-71
2021/05/30 07:48:53;;;;;;;;;;;19.90;53.40;;;;;;5088243;28;21541;-71
2021/05/30 07:51:21;;;;;;;;;;;19.90;53.20;;;;;;5082507;28;19913;-71
2021/05/30 07:53:46;;;;;;;;;;;20.20;52.70;;;;;;5089124;28;19912;-71
2021/05/30 07:56:12;;;;;;;;;;;20.40;51.20;;;;;;5099822;28;20228;-71
2021/05/30 07:58:38;;;;;;;;;;;20.70;50.50;;;;;;5082351;28;19912;-71
2021/05/30 08:01:03;;;;;;;;;;;21.10;50.50;;;;;;5091465;28;19916;-71
2021/05/30 08:03:29;;;;;;;;;;;21.10;50.50;;;;;;5093875;28;19954;-71
2021/05/30 08:05:57;;;;;;;;;;;20.90;51.20;;;;;;5086682;28;19941;-71
2021/05/30 08:08:23;;;;;;;;;;;20.90;49.70;;;;;;5095568;28;19916;-71
2021/05/30 08:10:48;;;;;;;;;;;20.90;50.60;;;;;;5077467;28;19916;-71
2021/05/30 08:13:14;;;;;;;;;;;21.40;49.50;;;;;;5095535;28;20322;-71
2021/05/30 08:15:40;;;;;;;;;;;22.00;48.40;;;;;;5090267;28;20250;-71
2021/05/30 08:18:06;;;;;;;;;;;21.90;47.10;;;;;;5093886;28;19912;-70
2021/05/30 08:20:31;;;;;;;;;;;22.10;46.90;;;;;;5093975;28;19919;-71
2021/05/30 08:22:57;;;;;;;;;;;21.30;47.60;;;;;;5094317;28;19916;-71
2021/05/30 08:25:22;;;;;;;;;;;21.10;49.40;;;;;;5093035;28;19920;-70
2021/05/30 08:27:48;;;;;;;;;;;20.90;48.30;;;;;;5096055;28;19964;-71
2021/05/30 08:30:14;;;;;;;;;;;20.80;47.20;;;;;;5092109;28;20034;-70
2021/05/30 08:32:40;;;;;;;;;;;20.70;47.60;;;;;;5074150;28;19915;-71
2021/05/30 08:35:06;;;;;;;;;;;20.80;47.80;;;;;;5092885;28;19919;-71
2021/05/30 08:37:32;;;;;;;;;;;21.10;47.70;;;;;;5094808;28;19912;-71
2021/05/30 08:39:58;;;;;;;;;;;21.80;49.10;;;;;;5071012;28;20018;-71
2021/05/30 08:42:23;;;;;;;;;;;21.90;47.50;;;;;;5094240;28;19919;-70
2021/05/30 08:44:49;;;;;;;;;;;21.70;46.80;;;;;;5089210;28;19916;-70
2021/05/30 08:47:17;;;;;;;;;;;21.40;49.00;;;;;;5095254;28;19916;-71
2021/05/30 08:49:46;;;;;;;;;;;21.40;47.80;;;;;;5092698;28;19943;-70
2021/05/30 08:52:12;;;;;;;;;;;20.50;47.80;;;;;;5094414;28;20301;-69
2021/05/30 08:54:37;;;;;;;;;;;20.70;48.90;;;;;;5081806;28;20201;-70
2021/05/30 08:57:03;;;;;;;;;;;20.70;48.00;;;;;;5067257;28;19920;-70
2021/05/30 08:59:40;;;;;;;;;;;20.50;48.60;;;;;;5066833;28;19924;-71
2021/05/30 09:02:12;;;;;;;;;;;20.60;48.10;;;;;;5091188;28;19920;-71
2021/05/30 09:04:39;;;;;;;;;;;21.10;49.20;;;;;;5083001;28;20256;-70
2021/05/30 09:07:05;;;;;;;;;;;22.10;47.70;;;;;;5092636;28;20246;-71
2021/05/30 09:09:40;;;;;;;;;;;22.30;47.90;;;;;;5093099;28;19912;-71
2021/05/30 09:12:10;;;;;;;;;;;22.20;48.80;;;;;;5093141;28;19919;-71
2021/05/30 09:14:45;;;;;;;;;;;22.00;47.10;;;;;;5088668;28;20384;-70
2021/05/30 09:17:11;;;;;;;;;;;21.80;47.10;;;;;;5086826;28;20284;-69
2021/05/30 09:19:48;;;;;;;;;;;21.80;47.10;;;;;;5076834;28;19965;-70
2021/05/30 09:22:13;;;;;;;;;;;21.90;46.90;;;;;;5087582;28;19998;-70
2021/05/30 09:24:39;;;;;;;;;;;21.90;47.90;;;;;;5092952;28;19956;-70
2021/05/30 09:27:10;;;;;;;;;;;22.30;48.60;;;;;;5092631;28;19982;-71
2021/05/30 09:29:36;;;;;;;;;;;22.10;47.80;;;;;;5095321;28;20255;-71
2021/05/30 09:32:02;;;;;;;;;;;22.60;47.20;;;;;;5079284;28;19916;-71
2021/05/30 09:34:30;;;;;;;;;;;22.30;47.30;;;;;;5063385;28;20289;-71
2021/05/30 09:36:56;;;;;;;;;;;21.50;49.10;;;;;;5091569;28;20308;-71
2021/05/30 09:39:38;;;;;;;;;;;21.60;49.60;;;;;;5094260;28;19973;-70
2021/05/30 09:42:22;;;;;;;;;;;21.10;51.10;;;;;;5091145;28;19912;-71
2021/05/30 09:45:00;;;;;;;;;;;21.60;49.00;;;;;;5089757;28;19916;-70
2021/05/30 09:47:38;;;;;;;;;;;21.50;50.30;;;;;;5082166;28;19962;-71
2021/05/30 09:50:05;;;;;;;;;;;21.70;48.80;;;;;;5074404;28;19963;-71
2021/05/30 09:52:44;;;;;;;;;;;22.20;49.30;;;;;;5092569;28;19919;-71
2021/05/30 09:55:14;;;;;;;;;;;23.30;46.30;;;;;;5087058;28;19935;-70
2021/05/30 09:57:39;;;;;;;;;;;24.10;49.70;;;;;;5087740;28;20648;-71
2021/05/30 10:00:06;;;;;;;;;;;24.10;45.40;;;;;;5092617;28;19981;-70
2021/05/30 10:02:32;;;;;;;;;;;22.90;46.30;;;;;;5075589;28;19916;-71
2021/05/30 10:04:59;;;;;;;;;;;21.80;46.60;;;;;;5071111;28;20201;-70
2021/05/30 10:07:25;;;;;;;;;;;21.70;49.10;;;;;;5087801;28;20301;-71
2021/05/30 10:09:51;;;;;;;;;;;22.90;48.40;;;;;;5088575;28;19958;-71
2021/05/30 10:12:18;;;;;;;;;;;23.30;46.60;;;;;;5093301;28;20296;-70
2021/05/30 10:14:43;;;;;;;;;;;23.00;48.40;;;;;;5087521;28;19924;-70
2021/05/30 10:17:10;;;;;;;;;;;23.40;48.60;;;;;;5086887;28;20544;-71
2021/05/30 10:19:40;;;;;;;;;;;23.70;45.30;;;;;;5093642;28;20011;-70
2021/05/30 10:22:06;;;;;;;;;;;23.10;48.30;;;;;;5090367;28;19958;-71
2021/05/30 10:24:32;;;;;;;;;;;23.10;47.10;;;;;;5082619;28;20108;-71
2021/05/30 10:27:38;;;;;;;;;;;22.10;49.10;;;;;;5091803;28;19920;-70
2021/05/30 10:30:13;;;;;;;;;;;20.90;51.10;;;;;;5091300;28;20265;-71
2021/05/30 10:32:42;;;;;;;;;;;21.20;51.00;;;;;;5094910;28;19912;-70
2021/05/30 10:35:17;;;;;;;;;;;20.60;50.30;;;;;;5087500;28;20316;-70
2021/05/30 10:37:48;;;;;;;;;;;20.30;52.10;;;;;;5087057;28;19912;-70
2021/05/30 10:40:23;;;;;;;;;;;19.90;52.90;;;;;;5096649;28;19919;-70
2021/05/30 10:43:07;;;;;;;;;;;20.10;52.50;;;;;;5077359;28;20018;-70
2021/05/30 10:45:33;;;;;;;;;;;20.20;52.80;;;;;;5073888;28;19961;-70
2021/05/30 10:48:05;;;;;;;;;;;20.10;52.00;;;;;;5094454;28;19965;-70
2021/05/30 10:50:35;;;;;;;;;;;20.20;51.70;;;;;;5092556;28;20226;-70
2021/05/30 10:53:00;;;;;;;;;;;20.30;52.40;;;;;;5085999;28;19912;-71
2021/05/30 10:55:27;;;;;;;;;;;19.40;54.70;;;;;;5097029;28;19966;-71
2021/05/30 10:57:53;;;;;;;;;;;19.00;55.00;;;;;;5096182;28;19916;-71
2021/05/30 11:00:21;;;;;;;;;;;18.90;55.70;;;;;;5094749;28;19961;-71
2021/05/30 11:03:08;;;;;;;;;;;18.50;56.00;;;;;;5090658;28;19935;-71
2021/05/30 11:05:50;;;;;;;;;;;18.90;58.30;;;;;;5093267;28;19924;-71
2021/05/30 11:08:34;;;;;;;;;;;20.30;55.00;;;;;;5066548;28;19913;-71
2021/05/30 11:11:12;;;;;;;;;;;21.90;54.10;;;;;;5089117;28;20327;-71
2021/05/30 11:13:47;;;;;;;;;;;22.80;48.80;;;;;;5091095;28;19927;-71
2021/05/30 11:16:13;;;;;;;;;;;22.90;49.40;;;;;;5085696;28;19928;-71
2021/05/30 11:18:39;;;;;;;;;;;23.10;49.40;;;;;;5088599;28;19982;-71
2021/05/30 11:21:04;;;;;;;;;;;23.00;50.00;;;;;;5093639;28;20305;-71
2021/05/30 11:23:30;;;;;;;;;;;22.80;51.30;;;;;;5094624;28;19916;-70
2021/05/30 11:25:56;;;;;;;;;;;22.70;50.10;;;;;;5096622;28;19920;-71
2021/05/30 11:28:23;;;;;;;;;;;22.50;50.60;;;;;;5096092;28;19916;-71
2021/05/30 11:30:54;;;;;;;;;;;21.90;51.30;;;;;;5076229;28;20336;-70
2021/05/30 11:33:25;;;;;;;;;;;22.10;52.60;;;;;;5096352;28;19920;-71
2021/05/30 11:35:58;;;;;;;;;;;22.60;52.20;;;;;;5095738;28;19919;-71
2021/05/30 11:38:33;;;;;;;;;;;22.50;50.50;;;;;;5096141;28;19912;-71
2021/05/30 11:41:17;;;;;;;;;;;22.90;51.70;;;;;;5091878;28;19999;-71
2021/05/30 11:44:12;;;;;;;;;;;22.80;50.00;;;;;;5083086;28;20009;-71
2021/05/30 11:46:47;;;;;;;;;;;23.60;51.30;;;;;;5084026;28;19955;-71
2021/05/30 11:49:15;;;;;;;;;;;24.00;51.30;;;;;;5092159;28;19917;-71
2021/05/30 11:51:48;;;;;;;;;;;23.30;51.00;;;;;;5081856;28;19923;-70
2021/05/30 11:54:14;;;;;;;;;;;23.00;51.00;;;;;;5096321;28;20339;-70
2021/05/30 11:56:42;;;;;;;;;;;23.20;48.70;;;;;;5095275;28;19912;-71
2021/05/30 11:59:08;;;;;;;;;;;23.20;50.20;;;;;;5067973;28;19920;-70
2021/05/30 12:01:46;;;;;;;;;;;22.90;51.50;;;;;;5089237;28;19912;-70
2021/05/30 12:04:21;;;;;;;;;;;22.80;50.70;;;;;;5090225;28;19912;-70
2021/05/30 12:06:47;;;;;;;;;;;22.60;50.70;;;;;;5077671;28;19962;-70
2021/05/30 12:09:12;;;;;;;;;;;23.00;53.70;;;;;;5094260;28;19939;-70
2021/05/30 12:11:38;;;;;;;;;;;23.50;49.40;;;;;;5091767;28;19912;-69
2021/05/30 12:14:04;;;;;;;;;;;22.90;49.70;;;;;;5089714;28;19912;-70
2021/05/30 12:16:30;;;;;;;;;;;23.00;50.80;;;;;;5092549;28;20347;-70
2021/05/30 12:18:56;;;;;;;;;;;23.10;51.00;;;;;;5078361;28;20190;-69
2021/05/30 12:21:23;;;;;;;;;;;23.10;49.80;;;;;;5095255;28;19912;-71
2021/05/30 12:23:48;;;;;;;;;;;23.30;50.30;;;;;;5091541;28;19913;-71
2021/05/30 12:26:14;;;;;;;;;;;23.60;48.60;;;;;;5096438;28;19916;-71
2021/05/30 12:28:40;;;;;;;;;;;23.50;49.30;;;;;;5089160;28;19924;-69
2021/05/30 12:31:08;;;;;;;;;;;23.60;47.10;;;;;;5084868;28;19916;-69
2021/05/30 12:33:51;;;;;;;;;;;23.80;49.70;;;;;;5091572;28;20369;-69
2021/05/30 12:36:33;;;;;;;;;;;24.00;48.50;;;;;;5094959;28;19965;-71
2021/05/30 12:39:19;;;;;;;;;;;23.60;48.80;;;;;;5090668;28;20313;-68
2021/05/30 12:41:46;;;;;;;;;;;23.70;49.30;;;;;;5069167;28;19927;-70
2021/05/30 12:44:13;;;;;;;;;;;23.70;46.40;;;;;;5096310;28;20351;-70
2021/05/30 12:46:39;;;;;;;;;;;22.40;48.90;;;;;;5094538;28;20391;-70
2021/05/30 12:49:12;;;;;;;;;;;21.90;49.20;;;;;;5078440;28;19912;-70
2021/05/30 12:51:38;;;;;;;;;;;21.30;51.70;;;;;;5069727;28;19912;-70
2021/05/30 12:54:16;;;;;;;;;;;22.20;49.80;;;;;;5094068;28;19916;-71
2021/05/30 12:56:49;;;;;;;;;;;22.90;47.50;;;;;;5082089;28;19917;-70
2021/05/30 12:59:19;;;;;;;;;;;22.80;48.50;;;;;;5090248;28;19916;-71
2021/05/30 13:01:47;;;;;;;;;;;22.50;51.40;;;;;;5085695;28;19916;-70
2021/05/30 13:04:22;;;;;;;;;;;22.60;49.20;;;;;;5068219;28;20212;-70
2021/05/30 13:07:07;;;;;;;;;;;22.60;51.20;;;;;;5067612;28;19924;-70
2021/05/30 13:09:43;;;;;;;;;;;22.60;49.80;;;;;;5084473;28;19920;-71
2021/05/30 13:12:29;;;;;;;;;;;22.30;49.60;;;;;;5088902;28;19958;-71
2021/05/30 13:15:05;;;;;;;;;;;21.80;48.30;;;;;;5079725;28;20305;-71
2021/05/30 13:17:34;;;;;;;;;;;21.70;48.20;;;;;;5087831;28;20224;-70
2021/05/30 13:20:06;;;;;;;;;;;22.00;50.30;;;;;;5092220;28;19920;-70
2021/05/30 13:22:33;;;;;;;;;;;23.00;49.80;;;;;;5080218;28;20403;-69
2021/05/30 13:24:59;;;;;;;;;;;23.10;47.60;;;;;;5090497;28;20367;-70
2021/05/30 13:27:25;;;;;;;;;;;23.00;48.80;;;;;;5092100;28;19998;-71
2021/05/30 13:30:09;;;;;;;;;;;23.20;47.40;;;;;;5091530;28;19916;-70
2021/05/30 13:32:36;;;;;;;;;;;23.00;47.50;;;;;;5066390;28;19916;-70
2021/05/30 13:35:03;;;;;;;;;;;23.40;47.10;;;;;;5068511;28;20006;-69
2021/05/30 13:37:28;;;;;;;;;;;23.60;49.10;;;;;;5079316;28;19912;-70
2021/05/30 13:39:55;;;;;;;;;;;24.00;47.60;;;;;;5068517;28;20366;-69
2021/05/30 13:42:20;;;;;;;;;;;24.30;47.10;;;;;;5091050;28;19977;-70
2021/05/30 13:44:46;;;;;;;;;;;24.10;45.80;;;;;;5090922;28;20003;-70
2021/05/30 13:47:11;;;;;;;;;;;23.30;46.70;;;;;;5084248;28;19927;-70
2021/05/30 13:49:37;;;;;;;;;;;22.40;49.10;;;;;;5093169;28;19908;-70
2021/05/30 13:52:03;;;;;;;;;;;22.60;45.30;;;;;;5091372;28;19977;-70
2021/05/30 13:54:28;;;;;;;;;;;22.90;45.90;;;;;;5092211;28;19923;-69
2021/05/30 13:56:54;;;;;;;;;;;23.60;43.20;;;;;;5091392;28;20312;-70
2021/05/30 13:59:19;;;;;;;;;;;23.80;44.20;;;;;;5092009;28;19948;-70
2021/05/30 14:01:45;;;;;;;;;;;23.10;47.50;;;;;;5091781;28;20344;-70
2021/05/30 14:04:11;;;;;;;;;;;23.60;46.20;;;;;;5092398;28;19916;-71
2021/05/30 14:06:37;;;;;;;;;;;24.30;46.50;;;;;;5090501;28;19919;-70
2021/05/30 14:09:03;;;;;;;;;;;24.40;46.40;;;;;;5093320;28;19962;-70
2021/05/30 14:11:30;;;;;;;;;;;24.10;47.60;;;;;;5091439;28;19916;-71
2021/05/30 14:13:55;;;;;;;;;;;24.50;44.90;;;;;;5084093;28;19922;-69
2021/05/30 14:16:21;;;;;;;;;;;24.30;45.80;;;;;;5089750;28;19925;-71
2021/05/30 14:18:47;;;;;;;;;;;23.80;47.60;;;;;;5092002;28;20244;-70
2021/05/30 14:21:12;;;;;;;;;;;24.10;46.90;;;;;;5083588;28;19912;-70
2021/05/30 14:23:40;;;;;;;;;;;24.20;49.10;;;;;;5082056;28;20293;-70
2021/05/30 14:26:06;;;;;;;;;;;24.20;45.90;;;;;;5086228;28;20011;-69